createdAt,value
2022-10-19T00:00:00.226Z,3.00
2022-10-19T00:02:28.319Z,2.00
2022-10-19T00:04:56.327Z,4.40
2022-10-19T00:07:24.348Z,4.00
2022-10-19T00:09:52.484Z,3.00
2022-10-19T00:12:21.853Z,3.00
2022-10-19T00:14:49.858Z,2.00
2022-10-19T00:17:17.911Z,2.00
2022-10-19T00:19:45.916Z,2.00
2022-10-19T00:22:14.228Z,2.00
2022-10-19T00:24:42.305Z,2.00
2022-10-19T00:27:10.370Z,3.00
2022-10-19T00:29:39.722Z,3.00
2022-10-19T00:32:07.739Z,2.00
2022-10-19T00:34:35.752Z,2.00
2022-10-19T00:37:03.781Z,2.60
2022-10-19T00:39:31.788Z,2.00
2022-10-19T00:41:59.813Z,1.00
2022-10-19T00:44:59.284Z,2.00
2022-10-19T00:47:27.307Z,1.50
2022-10-19T00:49:55.317Z,1.00
2022-10-19T00:52:24.364Z,2.00
2022-10-19T00:54:52.581Z,2.00
2022-10-19T00:57:20.747Z,1.00
2022-10-19T00:59:48.810Z,1.00
2022-10-19T01:02:18.202Z,2.00
2022-10-19T01:07:30.918Z,1.00
2022-10-19T01:09:59.095Z,2.00
2022-10-19T01:12:37.102Z,0.25
2022-10-19T01:15:15.220Z,1.00
2022-10-19T01:17:49.319Z,1.00
2022-10-19T01:20:34.315Z,0.80
2022-10-19T01:23:11.394Z,0.00
2022-10-19T01:25:45.667Z,1.00
2022-10-19T01:28:19.779Z,1.00
2022-10-19T01:30:51.739Z,1.00
2022-10-19T01:33:28.394Z,0.00
2022-10-19T01:36:02.837Z,0.00
2022-10-19T01:38:41.788Z,1.00
2022-10-19T01:41:14.783Z,0.00
2022-10-19T01:43:44.630Z,1.00
2022-10-19T01:46:15.047Z,0.00
2022-10-19T01:48:45.952Z,0.60
2022-10-19T01:51:15.167Z,0.40
2022-10-19T01:53:45.976Z,1.00
2022-10-19T01:56:14.022Z,0.00
2022-10-19T01:58:42.245Z,1.00
2022-10-19T02:03:40.920Z,1.00
2022-10-19T02:06:09.906Z,0.00
2022-10-19T02:08:40.195Z,1.00
2022-10-19T02:11:08.246Z,0.00
2022-10-19T02:13:36.265Z,1.00
2022-10-19T02:16:06.483Z,0.00
2022-10-19T02:18:37.495Z,0.60
2022-10-19T02:21:07.308Z,0.60
2022-10-19T02:23:35.606Z,0.40
2022-10-19T02:26:03.772Z,1.00
2022-10-19T02:28:31.791Z,1.00
2022-10-19T02:31:00.038Z,1.00
2022-10-19T02:33:28.137Z,0.00
2022-10-19T02:35:56.322Z,0.00
2022-10-19T02:38:25.693Z,1.00
2022-10-19T02:40:58.919Z,1.00
2022-10-19T02:43:27.106Z,0.00
2022-10-19T02:45:58.228Z,1.00
2022-10-19T02:48:26.529Z,0.00
2022-10-19T02:50:54.577Z,0.00
2022-10-19T02:53:22.563Z,1.00
2022-10-19T02:55:51.962Z,0.80
2022-10-19T02:58:19.991Z,0.00
2022-10-19T03:00:48.072Z,0.00
2022-10-19T03:03:16.138Z,1.00
2022-10-19T03:05:44.183Z,0.60
2022-10-19T03:08:12.204Z,1.00
2022-10-19T03:10:40.247Z,1.00
2022-10-19T03:13:09.623Z,1.00
2022-10-19T03:15:37.658Z,1.00
2022-10-19T03:18:05.782Z,1.00
2022-10-19T03:20:33.827Z,1.00
2022-10-19T03:23:01.863Z,1.00
2022-10-19T03:25:29.872Z,0.00
2022-10-19T03:27:57.910Z,1.00
2022-10-19T03:30:27.287Z,0.00
2022-10-19T03:32:55.336Z,0.00
2022-10-19T03:35:23.386Z,1.00
2022-10-19T03:37:51.425Z,0.00
2022-10-19T03:40:19.442Z,0.50
2022-10-19T03:42:47.487Z,0.00
2022-10-19T03:45:15.657Z,1.00
2022-10-19T03:47:45.054Z,1.00
2022-10-19T03:50:14.266Z,2.00
2022-10-19T03:52:42.302Z,1.00
2022-10-19T03:55:10.969Z,0.00
2022-10-19T03:57:39.077Z,0.00
2022-10-19T04:00:08.134Z,0.00
2022-10-19T04:02:41.892Z,1.00
2022-10-19T04:05:11.367Z,0.40
2022-10-19T04:07:39.415Z,0.00
2022-10-19T04:10:08.173Z,1.00
2022-10-19T04:12:36.218Z,0.00
2022-10-19T04:15:04.387Z,1.00
2022-10-19T04:17:32.854Z,0.00
2022-10-19T04:20:01.069Z,1.00
2022-10-19T04:22:30.463Z,0.00
2022-10-19T04:24:58.485Z,1.00
2022-10-19T04:27:26.534Z,2.00
2022-10-19T04:29:54.559Z,0.00
2022-10-19T04:32:22.610Z,0.25
2022-10-19T04:34:50.625Z,1.00
2022-10-19T04:37:18.671Z,0.00
2022-10-19T04:39:48.050Z,1.00
2022-10-19T04:42:16.096Z,1.00
2022-10-19T04:44:44.115Z,1.00
2022-10-19T04:47:12.162Z,1.00
2022-10-19T04:49:40.179Z,0.00
2022-10-19T04:52:08.232Z,0.00
2022-10-19T04:54:36.256Z,0.00
2022-10-19T04:57:05.759Z,1.00
2022-10-19T04:59:33.861Z,0.00
2022-10-19T05:02:01.898Z,0.40
2022-10-19T05:04:29.919Z,0.00
2022-10-19T05:06:57.971Z,0.40
2022-10-19T05:09:26.275Z,1.00
2022-10-19T05:11:54.309Z,0.25
2022-10-19T05:14:23.944Z,0.00
2022-10-19T05:16:52.001Z,1.40
2022-10-19T05:19:20.010Z,2.00
2022-10-19T05:21:48.054Z,0.00
2022-10-19T05:24:16.080Z,1.00
2022-10-19T05:26:44.118Z,0.00
2022-10-19T05:29:12.771Z,1.00
2022-10-19T05:31:42.216Z,1.00
2022-10-19T05:34:10.259Z,0.80
2022-10-19T05:36:39.206Z,0.80
2022-10-19T05:39:08.156Z,1.00
2022-10-19T05:41:36.264Z,1.00
2022-10-19T05:44:04.578Z,0.00
2022-10-19T05:46:33.065Z,1.00
2022-10-19T05:49:02.434Z,1.00
2022-10-19T05:51:30.523Z,1.00
2022-10-19T05:53:58.659Z,0.67
2022-10-19T05:56:27.793Z,0.00
2022-10-19T05:58:56.497Z,1.00
2022-10-19T06:01:24.596Z,1.00
2022-10-19T06:03:53.342Z,0.00
2022-10-19T06:06:23.020Z,0.50
2022-10-19T06:08:51.207Z,1.00
2022-10-19T06:11:21.003Z,1.00
2022-10-19T06:13:50.421Z,1.00
2022-10-19T06:16:19.248Z,0.60
2022-10-19T06:18:47.335Z,1.60
2022-10-19T06:21:16.223Z,1.00
2022-10-19T06:23:45.648Z,1.00
2022-10-19T06:26:15.216Z,0.00
2022-10-19T06:28:43.652Z,0.25
2022-10-19T06:31:12.583Z,1.00
2022-10-19T06:33:40.831Z,1.50
2022-10-19T06:36:08.998Z,1.00
2022-10-19T06:38:37.023Z,1.00
2022-10-19T06:41:06.804Z,0.00
2022-10-19T06:43:34.857Z,2.00
2022-10-19T06:46:05.437Z,0.60
2022-10-19T06:48:33.474Z,2.00
2022-10-19T06:51:02.084Z,0.33
2022-10-19T06:53:30.108Z,1.00
2022-10-19T06:55:59.096Z,1.00
2022-10-19T06:58:28.560Z,1.00
2022-10-19T07:00:57.627Z,1.00
2022-10-19T07:03:25.835Z,0.00
2022-10-19T07:05:54.980Z,1.00
2022-10-19T07:08:23.055Z,1.00
2022-10-19T07:10:52.061Z,1.00
2022-10-19T07:13:20.283Z,1.00
2022-10-19T07:15:49.770Z,1.00
2022-10-19T07:18:18.264Z,1.00
2022-10-19T07:20:55.487Z,1.00
2022-10-19T07:23:23.590Z,1.00
2022-10-19T07:25:53.146Z,1.00
2022-10-19T07:28:21.469Z,1.00
2022-10-19T07:30:50.884Z,0.50
2022-10-19T07:33:18.865Z,1.25
2022-10-19T07:35:46.936Z,1.00
2022-10-19T07:38:14.936Z,0.00
2022-10-19T07:40:46.387Z,0.20
2022-10-19T07:43:15.536Z,1.00
2022-10-19T07:45:43.601Z,0.40
2022-10-19T07:48:12.984Z,0.00
2022-10-19T07:50:41.037Z,1.00
2022-10-19T07:53:09.333Z,0.00
2022-10-19T07:55:37.439Z,1.00
2022-10-19T07:58:05.459Z,1.00
2022-10-19T08:00:33.559Z,1.00
2022-10-19T08:03:43.131Z,2.00
2022-10-19T08:05:51.010Z,2.00
2022-10-19T08:08:19.055Z,0.00
2022-10-19T08:10:47.079Z,1.50
2022-10-19T08:13:15.142Z,1.00
2022-10-19T08:15:43.167Z,1.00
2022-10-19T08:18:11.579Z,0.00
2022-10-19T08:20:41.878Z,1.00
2022-10-19T08:23:11.326Z,1.00
2022-10-19T08:25:39.346Z,0.00
2022-10-19T08:28:07.383Z,1.00
2022-10-19T08:30:35.777Z,0.75
2022-10-19T08:33:04.525Z,1.00
2022-10-19T08:35:32.722Z,1.00
2022-10-19T08:38:02.771Z,1.00
2022-10-19T08:40:32.473Z,1.00
2022-10-19T08:43:03.593Z,0.00
2022-10-19T08:45:38.006Z,1.00
2022-10-19T08:48:17.691Z,1.00
2022-10-19T08:50:46.091Z,1.00
2022-10-19T08:53:15.348Z,1.80
2022-10-19T08:55:50.574Z,1.00
2022-10-19T08:58:25.691Z,0.00
2022-10-19T09:00:55.399Z,1.00
2022-10-19T09:03:37.720Z,1.00
2022-10-19T09:06:20.578Z,1.50
2022-10-19T09:08:48.644Z,2.00
2022-10-19T09:11:18.779Z,0.00
2022-10-19T09:14:05.863Z,1.00
2022-10-19T09:16:34.948Z,0.50
2022-10-19T09:19:03.467Z,0.00
2022-10-19T09:21:45.937Z,1.00
2022-10-19T09:24:22.829Z,1.00
2022-10-19T09:26:53.341Z,0.40
2022-10-19T09:29:25.408Z,1.00
2022-10-19T09:31:54.765Z,1.00
2022-10-19T09:34:24.518Z,0.50
2022-10-19T09:36:54.192Z,1.00
2022-10-19T09:39:23.505Z,1.00
2022-10-19T09:41:55.909Z,0.00
2022-10-19T09:44:24.557Z,1.00
2022-10-19T09:46:54.757Z,1.00
2022-10-19T09:49:40.199Z,1.00
2022-10-19T09:52:10.799Z,1.00
2022-10-19T09:54:39.572Z,1.00
2022-10-19T09:57:11.010Z,1.00
2022-10-19T09:59:39.032Z,0.00
2022-10-19T10:02:16.691Z,1.00
2022-10-19T10:04:47.198Z,1.00
2022-10-19T10:07:19.132Z,0.00
2022-10-19T10:09:47.276Z,1.00
2022-10-19T10:12:16.969Z,0.00
2022-10-19T10:14:45.431Z,1.00
2022-10-19T10:17:16.512Z,0.00
2022-10-19T10:19:52.425Z,1.00
2022-10-19T10:22:27.309Z,1.00
2022-10-19T10:24:55.850Z,1.00
2022-10-19T10:27:31.821Z,1.40
2022-10-19T10:30:00.310Z,0.60
2022-10-19T10:32:28.773Z,0.00
2022-10-19T10:35:01.260Z,1.80
2022-10-19T10:37:31.906Z,2.00
2022-10-19T10:40:03.508Z,1.00
2022-10-19T10:42:36.528Z,1.00
2022-10-19T10:45:05.350Z,0.75
2022-10-19T10:47:33.578Z,1.40
2022-10-19T10:50:05.848Z,1.00
2022-10-19T10:52:34.565Z,1.00
2022-10-19T10:55:03.822Z,0.00
2022-10-19T10:57:34.506Z,0.80
2022-10-19T11:00:07.762Z,1.80
2022-10-19T11:02:42.410Z,1.00
2022-10-19T11:05:13.424Z,1.00
2022-10-19T11:07:43.431Z,0.00
2022-10-19T11:10:17.206Z,1.00
2022-10-19T11:12:47.687Z,0.00
2022-10-19T11:15:18.553Z,0.80
2022-10-19T11:17:58.559Z,1.00
2022-10-19T11:20:27.928Z,1.00
2022-10-19T11:22:58.798Z,2.00
2022-10-19T11:25:32.189Z,1.00
2022-10-19T11:28:09.383Z,1.00
2022-10-19T11:30:41.586Z,0.75
2022-10-19T11:33:15.540Z,0.00
2022-10-19T11:35:52.989Z,1.00
2022-10-19T11:38:36.217Z,0.25
2022-10-19T11:41:22.437Z,1.00
2022-10-19T11:44:05.584Z,1.00
2022-10-19T11:46:36.064Z,0.40
2022-10-19T11:49:13.500Z,1.00
2022-10-19T11:51:44.092Z,0.80
2022-10-19T11:54:19.786Z,2.00
2022-10-19T11:57:09.399Z,0.00
2022-10-19T11:59:46.063Z,0.75
2022-10-19T12:02:24.493Z,1.00
2022-10-19T12:04:54.546Z,0.00
2022-10-19T12:07:36.165Z,1.80
2022-10-19T12:10:08.707Z,0.00
2022-10-19T12:12:37.821Z,0.00
2022-10-19T12:15:18.682Z,0.00
2022-10-19T12:17:48.604Z,0.50
2022-10-19T12:20:20.125Z,0.40
2022-10-19T12:22:48.198Z,0.00
2022-10-19T12:25:16.277Z,0.50
2022-10-19T12:27:45.897Z,0.00
2022-10-19T12:30:17.263Z,0.00
2022-10-19T12:32:54.146Z,0.00
2022-10-19T12:35:54.211Z,1.00
2022-10-19T12:38:25.997Z,1.00
2022-10-19T12:40:57.012Z,0.00
2022-10-19T12:43:28.416Z,0.00
2022-10-19T12:46:03.732Z,0.00
2022-10-19T12:48:31.967Z,0.00
2022-10-19T12:51:12.249Z,0.40
2022-10-19T12:53:41.395Z,0.00
2022-10-19T12:56:12.161Z,0.00
2022-10-19T12:58:47.736Z,0.80
2022-10-19T13:01:19.959Z,1.00
2022-10-19T13:03:48.072Z,0.00
2022-10-19T13:06:17.950Z,0.00
2022-10-19T13:08:49.115Z,0.00
2022-10-19T13:11:17.165Z,1.00
2022-10-19T13:14:05.087Z,0.00
2022-10-19T13:17:04.838Z,1.00
2022-10-19T13:19:32.880Z,1.00
2022-10-19T13:22:24.623Z,1.00
2022-10-19T13:25:23.822Z,1.00
2022-10-19T13:27:52.093Z,0.00
2022-10-19T13:31:03.309Z,0.00
2022-10-19T13:33:51.145Z,0.00
2022-10-19T13:36:19.382Z,0.00
2022-10-19T13:38:48.578Z,0.00
2022-10-19T13:41:19.266Z,0.00
2022-10-19T13:44:13.806Z,0.00
2022-10-19T13:46:50.503Z,1.00
2022-10-19T13:49:34.491Z,0.00
2022-10-19T13:52:10.085Z,0.20
2022-10-19T13:54:58.849Z,0.00
2022-10-19T13:57:32.042Z,0.75
2022-10-19T14:00:14.789Z,0.80
2022-10-19T14:02:59.720Z,1.00
2022-10-19T14:06:06.161Z,0.00
2022-10-19T14:09:06.182Z,0.20
2022-10-19T14:11:35.091Z,1.00
2022-10-19T14:14:16.359Z,1.00
2022-10-19T14:16:49.153Z,0.00
2022-10-19T14:19:26.836Z,1.00
2022-10-19T14:21:56.299Z,0.75
2022-10-19T14:24:31.546Z,0.00
2022-10-19T14:27:01.292Z,0.25
2022-10-19T14:29:29.410Z,0.00
2022-10-19T14:31:57.432Z,0.00
2022-10-19T14:34:25.505Z,0.00
2022-10-19T14:36:53.532Z,1.00
2022-10-19T14:39:32.615Z,1.00
2022-10-19T14:42:04.841Z,1.00
2022-10-19T14:44:41.034Z,1.00
2022-10-19T14:47:20.893Z,0.00
2022-10-19T14:49:48.906Z,0.00
2022-10-19T14:52:19.423Z,1.00
2022-10-19T14:54:49.595Z,1.60
2022-10-19T14:57:19.045Z,1.00
2022-10-19T14:59:48.384Z,1.00
2022-10-19T15:02:18.584Z,1.00
2022-10-19T15:04:46.617Z,1.00
2022-10-19T15:07:19.818Z,0.20
2022-10-19T15:09:54.279Z,1.00
2022-10-19T15:12:24.723Z,1.00
2022-10-19T15:14:52.750Z,1.00
2022-10-19T15:17:25.998Z,0.00
2022-10-19T15:19:55.713Z,1.00
2022-10-19T15:22:26.638Z,1.00
2022-10-19T15:25:01.135Z,0.60
2022-10-19T15:27:33.562Z,0.00
2022-10-19T15:30:02.604Z,1.00
2022-10-19T15:32:35.491Z,0.60
2022-10-19T15:35:12.078Z,0.40
2022-10-19T15:37:40.663Z,1.00
2022-10-19T15:40:14.606Z,0.75
2022-10-19T15:42:44.486Z,0.00
2022-10-19T15:45:35.251Z,0.75
2022-10-19T15:48:25.464Z,0.00
2022-10-19T15:50:53.511Z,0.00
2022-10-19T15:53:21.762Z,0.00
2022-10-19T15:55:51.151Z,0.00
2022-10-19T15:58:21.151Z,0.00
2022-10-19T16:00:49.276Z,1.00
2022-10-19T16:03:17.391Z,1.00
2022-10-19T16:05:45.586Z,1.00
2022-10-19T16:08:13.644Z,1.00
2022-10-19T16:10:41.683Z,1.00
2022-10-19T16:13:11.095Z,0.00
2022-10-19T16:15:39.124Z,1.00
2022-10-19T16:18:07.169Z,0.00
2022-10-19T16:20:35.191Z,0.00
2022-10-19T16:23:03.268Z,0.00
2022-10-19T16:25:31.340Z,1.00
2022-10-19T16:27:59.392Z,0.00
2022-10-19T16:30:28.768Z,0.50
2022-10-19T16:32:56.808Z,0.00
2022-10-19T16:35:25.383Z,0.00
2022-10-19T16:37:53.426Z,1.00
2022-10-19T16:40:21.451Z,0.75
2022-10-19T16:42:49.495Z,0.00
2022-10-19T16:45:17.663Z,1.00
2022-10-19T16:47:50.256Z,0.00
2022-10-19T16:50:18.441Z,0.00
2022-10-19T16:52:46.484Z,2.20
2022-10-19T16:55:14.506Z,1.00
2022-10-19T16:57:42.540Z,2.00
2022-10-19T17:00:11.501Z,0.00
2022-10-19T17:02:41.999Z,0.00
2022-10-19T17:05:13.935Z,1.00
2022-10-19T17:07:41.975Z,1.00
2022-10-19T17:10:10.838Z,2.00
2022-10-19T17:12:40.770Z,1.25
2022-10-19T17:15:41.065Z,3.50
2022-10-19T17:17:58.092Z,2.00
2022-10-19T17:20:27.466Z,1.00
2022-10-19T17:22:55.531Z,1.00
2022-10-19T17:25:23.546Z,1.00
2022-10-19T17:27:51.661Z,1.00
2022-10-19T17:30:19.869Z,1.00
2022-10-19T17:32:47.922Z,0.00
2022-10-19T17:35:16.043Z,1.00
2022-10-19T17:37:45.441Z,0.80
2022-10-19T17:40:13.904Z,1.00
2022-10-19T17:42:41.957Z,0.00
2022-10-19T17:45:11.411Z,1.00
2022-10-19T17:47:39.455Z,2.00
2022-10-19T17:50:08.134Z,2.00
2022-10-19T17:52:36.236Z,1.00
2022-10-19T17:55:12.043Z,1.60
2022-10-19T17:57:40.783Z,0.50
2022-10-19T18:00:09.556Z,2.00
2022-10-19T18:02:45.438Z,0.50
2022-10-19T18:05:13.561Z,1.00
2022-10-19T18:07:43.034Z,1.60
2022-10-19T18:10:13.499Z,2.00
2022-10-19T18:12:41.543Z,1.00
2022-10-19T18:15:10.195Z,2.00
2022-10-19T18:17:38.671Z,1.50
2022-10-19T18:20:08.096Z,1.75
2022-10-19T18:22:36.180Z,2.00
2022-10-19T18:25:04.270Z,2.00
2022-10-19T18:27:34.042Z,5.00
2022-10-19T18:30:02.418Z,3.00
2022-10-19T18:32:30.517Z,3.00
2022-10-19T18:34:58.570Z,2.50
2022-10-19T18:37:26.616Z,2.80
2022-10-19T18:39:54.645Z,3.25
2022-10-19T18:42:22.696Z,2.75
2022-10-19T18:44:52.071Z,2.20
2022-10-19T18:47:20.119Z,1.00
2022-10-19T18:49:48.157Z,4.00
2022-10-19T18:52:16.211Z,2.00
2022-10-19T18:54:44.261Z,2.00
2022-10-19T18:57:12.299Z,3.00
2022-10-19T18:59:40.315Z,2.80
2022-10-19T19:02:17.100Z,2.00
2022-10-19T19:04:50.888Z,3.00
2022-10-19T19:07:19.510Z,2.00
2022-10-19T19:09:47.527Z,3.00
2022-10-19T19:12:16.087Z,3.00
2022-10-19T19:14:45.233Z,2.50
2022-10-19T19:17:14.804Z,2.00
2022-10-19T19:19:42.824Z,3.00
2022-10-19T19:22:10.874Z,1.60
2022-10-19T19:24:38.928Z,2.40
2022-10-19T19:27:07.062Z,2.00
2022-10-19T19:29:35.087Z,1.00
2022-10-19T19:32:04.195Z,2.75
2022-10-19T19:34:33.562Z,1.60
2022-10-19T19:37:02.178Z,3.00
2022-10-19T19:39:31.277Z,3.00
2022-10-19T19:41:59.327Z,2.00
2022-10-19T19:44:29.658Z,2.00
2022-10-19T19:46:57.799Z,2.00
2022-10-19T19:49:25.991Z,1.20
2022-10-19T19:51:55.530Z,2.00
2022-10-19T19:54:23.552Z,2.00
2022-10-19T19:56:51.719Z,3.00
2022-10-19T19:59:19.785Z,2.00
2022-10-19T20:01:47.892Z,2.40
2022-10-19T20:04:15.983Z,1.60
2022-10-19T20:06:44.639Z,2.00
2022-10-19T20:09:14.145Z,2.00
2022-10-19T20:11:42.970Z,3.00
2022-10-19T20:14:11.431Z,1.00
2022-10-19T20:16:39.481Z,2.00
2022-10-19T20:19:09.223Z,2.20
2022-10-19T20:21:37.343Z,3.00
2022-10-19T20:24:05.622Z,2.00
2022-10-19T20:26:35.117Z,3.00
2022-10-19T20:29:03.173Z,1.20
2022-10-19T20:31:31.371Z,2.00
2022-10-19T20:33:59.427Z,2.00
2022-10-19T20:36:27.757Z,3.00
2022-10-19T20:38:56.486Z,2.00
2022-10-19T20:41:25.673Z,2.00
2022-10-19T20:43:55.347Z,2.00
2022-10-19T20:46:24.369Z,3.00
2022-10-19T20:48:52.513Z,3.60
2022-10-19T20:51:23.050Z,3.00
2022-10-19T20:53:52.918Z,2.00
2022-10-19T20:56:23.151Z,2.40
2022-10-19T20:58:56.705Z,3.50
2022-10-19T21:01:24.905Z,3.50
2022-10-19T21:03:53.866Z,3.00
2022-10-19T21:06:22.178Z,3.00
2022-10-19T21:08:50.429Z,3.00
2022-10-19T21:11:19.319Z,2.00
2022-10-19T21:13:47.450Z,2.25
2022-10-19T21:16:17.509Z,3.00
2022-10-19T21:18:46.364Z,3.00
2022-10-19T21:21:15.277Z,2.00
2022-10-19T21:23:43.414Z,2.25
2022-10-19T21:26:11.440Z,2.00
2022-10-19T21:28:40.019Z,3.00
2022-10-19T21:31:08.724Z,2.75
2022-10-19T21:33:38.121Z,2.00
2022-10-19T21:36:07.160Z,3.00
2022-10-19T21:38:35.313Z,4.60
2022-10-19T21:41:04.023Z,2.00
2022-10-19T21:43:32.076Z,2.00
2022-10-19T21:46:02.728Z,3.60
2022-10-19T21:48:31.026Z,3.00
2022-10-19T21:51:00.398Z,2.00
2022-10-19T21:53:28.441Z,3.40
2022-10-19T21:56:00.187Z,2.00
2022-10-19T21:58:28.250Z,3.50
2022-10-19T22:00:56.269Z,3.40
2022-10-19T22:03:24.320Z,4.00
2022-10-19T22:05:52.417Z,4.00
2022-10-19T22:08:21.818Z,3.40
2022-10-19T22:10:49.827Z,8.00
2022-10-19T22:13:17.871Z,4.40
2022-10-19T22:15:45.959Z,6.20
2022-10-19T22:18:14.002Z,4.00
2022-10-19T22:20:42.046Z,6.60
2022-10-19T22:23:10.090Z,6.00
2022-10-19T22:25:39.469Z,5.00
2022-10-19T22:28:07.507Z,6.00
2022-10-19T22:30:35.527Z,6.00
2022-10-19T22:33:03.569Z,4.50
2022-10-19T22:35:31.587Z,5.20
2022-10-19T22:37:59.632Z,4.00
2022-10-19T22:40:27.652Z,3.00
2022-10-19T22:42:57.188Z,3.40
2022-10-19T22:45:25.351Z,5.00
2022-10-19T22:47:53.519Z,5.20
2022-10-19T22:50:21.666Z,3.00
2022-10-19T22:52:49.843Z,6.00
2022-10-19T22:55:18.140Z,6.00
2022-10-19T22:57:46.332Z,5.50
2022-10-19T23:00:16.319Z,6.25
2022-10-19T23:02:44.490Z,6.00
2022-10-19T23:05:12.630Z,9.00
2022-10-19T23:07:40.799Z,12.60
2022-10-19T23:10:09.519Z,18.00
2022-10-19T23:12:37.694Z,24.00
2022-10-19T23:15:06.377Z,9.40
2022-10-19T23:17:36.074Z,24.50
2022-10-19T23:20:04.543Z,30.40
2022-10-19T23:22:32.595Z,36.20
2022-10-19T23:25:00.732Z,41.00
2022-10-19T23:27:28.912Z,23.50
2022-10-19T23:29:57.096Z,39.60
2022-10-19T23:32:25.326Z,43.60
2022-10-19T23:34:54.842Z,3.00
2022-10-19T23:37:23.016Z,3.00
2022-10-19T23:39:51.047Z,3.00
2022-10-19T23:42:19.095Z,2.00
2022-10-19T23:44:47.116Z,3.00
2022-10-19T23:47:15.155Z,4.00
2022-10-19T23:49:43.170Z,3.00
2022-10-19T23:52:12.560Z,3.00
2022-10-19T23:54:40.574Z,3.50
2022-10-19T23:57:08.622Z,2.20
2022-10-19T23:59:36.634Z,2.80
